createdAt,value
2019-03-31T00:01:12.127Z,97428.41
2019-03-31T00:06:08.949Z,97422.23
2019-03-31T00:11:05.635Z,97424.17
2019-03-31T00:16:02.661Z,97425.16
2019-03-31T00:20:59.285Z,97429.35
2019-03-31T00:25:55.919Z,97422.03
2019-03-31T00:30:53.350Z,97421.11
2019-03-31T00:35:49.947Z,97431.72
2019-03-31T00:40:46.589Z,97426.21
2019-03-31T00:45:43.249Z,97425.14
2019-03-31T00:50:40.014Z,97419.61
2019-03-31T00:55:36.601Z,97431.20
2019-03-31T01:00:51.815Z,97419.70
2019-03-31T01:05:48.865Z,97421.75
2019-03-31T01:10:46.921Z,97430.11
2019-03-31T01:15:43.599Z,97428.00
2019-03-31T01:20:40.313Z,97430.22
2019-03-31T01:25:36.880Z,97420.09
2019-03-31T01:30:33.519Z,97416.39
2019-03-31T01:35:30.480Z,97426.42
2019-03-31T01:40:27.159Z,97427.36
2019-03-31T01:45:24.114Z,97428.69
2019-03-31T01:50:22.525Z,97424.87
2019-03-31T01:55:19.296Z,97432.84
2019-03-31T02:00:30.331Z,97433.79
2019-03-31T02:05:26.986Z,97432.62
2019-03-31T02:10:23.779Z,97426.75
2019-03-31T02:15:24.329Z,97427.29
2019-03-31T02:20:21.095Z,97433.61
2019-03-31T02:25:17.704Z,97428.75
2019-03-31T02:30:14.873Z,97430.30
2019-03-31T02:35:11.857Z,97424.02
2019-03-31T02:40:09.816Z,97427.98
2019-03-31T02:45:06.779Z,97435.27
2019-03-31T02:50:03.445Z,97430.67
2019-03-31T02:55:00.564Z,97424.91
2019-03-31T02:59:58.817Z,97422.17
2019-03-31T03:04:58.122Z,97412.98
2019-03-31T03:09:57.121Z,97411.52
2019-03-31T03:14:56.482Z,97415.92
2019-03-31T03:19:53.205Z,97417.64
2019-03-31T03:24:49.759Z,97410.18
2019-03-31T03:29:46.452Z,97408.67
2019-03-31T03:34:44.073Z,97419.44
2019-03-31T03:39:40.701Z,97412.88
2019-03-31T03:44:37.300Z,97409.69
2019-03-31T03:49:33.857Z,97406.50
2019-03-31T03:54:30.496Z,97401.81
2019-03-31T03:59:27.162Z,97401.20
2019-03-31T04:04:23.740Z,97398.23
2019-03-31T04:09:20.337Z,97399.05
2019-03-31T04:14:17.129Z,97396.80
2019-03-31T04:19:13.731Z,97406.82
2019-03-31T04:24:10.565Z,97401.58
2019-03-31T04:29:07.224Z,97404.44
2019-03-31T04:34:03.881Z,97399.72
2019-03-31T04:39:00.912Z,97410.86
2019-03-31T04:43:57.635Z,97408.19
2019-03-31T04:48:54.271Z,97408.95
2019-03-31T04:53:51.893Z,97406.55
2019-03-31T04:58:48.500Z,97411.61
2019-03-31T05:03:45.155Z,97410.50
2019-03-31T05:08:41.776Z,97418.28
2019-03-31T05:13:38.373Z,97413.86
2019-03-31T05:18:35.109Z,97416.41
2019-03-31T05:23:31.757Z,97422.78
2019-03-31T05:28:28.407Z,97418.72
2019-03-31T05:33:24.982Z,97425.28
2019-03-31T05:38:21.621Z,97428.20
2019-03-31T05:43:18.215Z,97426.95
2019-03-31T05:48:14.928Z,97436.20
2019-03-31T05:53:11.503Z,97425.69
2019-03-31T05:58:11.286Z,97428.42
2019-03-31T06:03:07.946Z,97428.62
2019-03-31T06:08:04.662Z,97431.58
2019-03-31T06:13:01.264Z,97429.94
2019-03-31T06:17:57.948Z,97439.93
2019-03-31T06:22:54.562Z,97438.28
2019-03-31T06:27:51.195Z,97435.45
2019-03-31T06:32:47.795Z,97433.90
2019-03-31T06:37:46.453Z,97442.41
2019-03-31T06:42:43.071Z,97437.84
2019-03-31T06:47:39.659Z,97442.28
2019-03-31T06:52:36.319Z,97449.33
2019-03-31T06:57:32.972Z,97453.92
2019-03-31T07:02:29.648Z,97445.95
2019-03-31T07:07:26.259Z,97443.95
2019-03-31T07:12:22.780Z,97448.52
2019-03-31T07:17:19.436Z,97443.21
2019-03-31T07:22:16.081Z,97434.15
2019-03-31T07:27:12.651Z,97439.70
2019-03-31T07:32:09.583Z,97442.34
2019-03-31T07:37:06.340Z,97446.41
2019-03-31T07:42:03.424Z,97443.33
2019-03-31T07:47:01.194Z,97440.48
2019-03-31T07:51:57.947Z,97435.30
2019-03-31T07:56:54.534Z,97429.08
2019-03-31T08:01:51.131Z,97424.39
2019-03-31T08:06:47.718Z,97420.73
2019-03-31T08:11:45.348Z,97422.11
2019-03-31T08:16:42.001Z,97428.62
2019-03-31T08:21:38.563Z,97419.91
2019-03-31T08:26:35.206Z,97423.05
2019-03-31T08:31:31.893Z,97415.50
2019-03-31T08:36:28.771Z,97422.47
2019-03-31T08:41:25.480Z,97420.16
2019-03-31T08:46:22.269Z,97417.73
2019-03-31T08:51:18.897Z,97418.63
2019-03-31T08:56:15.550Z,97414.38
2019-03-31T09:01:14.502Z,97410.98
2019-03-31T09:06:12.784Z,97406.66
2019-03-31T09:11:09.368Z,97399.91
2019-03-31T09:16:06.088Z,97401.94
2019-03-31T09:21:02.700Z,97385.58
2019-03-31T09:25:59.284Z,97381.91
2019-03-31T09:30:55.992Z,97388.20
2019-03-31T09:35:54.826Z,97378.64
2019-03-31T09:40:51.540Z,97377.61
2019-03-31T09:45:48.146Z,97369.47
2019-03-31T09:50:44.999Z,97365.63
2019-03-31T09:55:43.775Z,97365.95
2019-03-31T10:00:49.491Z,97366.73
2019-03-31T10:05:48.163Z,97353.31
2019-03-31T10:10:45.209Z,97349.55
2019-03-31T10:15:41.808Z,97341.27
2019-03-31T10:20:38.495Z,97329.36
2019-03-31T10:25:35.229Z,97320.86
2019-03-31T10:30:36.810Z,97313.77
2019-03-31T10:35:33.362Z,97316.33
2019-03-31T10:40:32.267Z,97304.59
2019-03-31T10:45:28.921Z,97298.94
2019-03-31T10:50:25.793Z,97287.50
2019-03-31T10:55:22.438Z,97284.25
2019-03-31T11:00:32.850Z,97283.47
2019-03-31T11:05:31.133Z,97270.99
2019-03-31T11:10:27.792Z,97267.00
2019-03-31T11:15:24.373Z,97254.45
2019-03-31T11:20:21.213Z,97251.39
2019-03-31T11:25:22.062Z,97243.33
2019-03-31T11:30:16.661Z,97226.53
2019-03-31T11:35:13.705Z,97225.89
2019-03-31T11:40:10.865Z,97219.61
2019-03-31T11:45:08.331Z,97211.34
2019-03-31T11:50:05.751Z,97206.33
2019-03-31T11:55:02.312Z,97203.97
2019-03-31T11:59:58.955Z,97203.23
2019-03-31T12:04:55.633Z,97198.34
2019-03-31T12:09:52.370Z,97185.86
2019-03-31T12:14:59.841Z,97181.36
2019-03-31T12:19:48.952Z,97166.77
2019-03-31T12:24:45.720Z,97158.84
2019-03-31T12:29:42.475Z,97144.97
2019-03-31T12:34:39.232Z,97143.59
2019-03-31T12:39:35.915Z,97140.83
2019-03-31T12:44:33.609Z,97129.57
2019-03-31T12:49:30.314Z,97125.93
2019-03-31T12:54:27.050Z,97120.78
2019-03-31T12:59:27.074Z,97110.47
2019-03-31T13:04:22.259Z,97107.86
2019-03-31T13:09:18.940Z,97096.87
2019-03-31T13:14:16.118Z,97094.23
2019-03-31T13:19:12.778Z,97086.12
2019-03-31T13:24:11.127Z,97080.45
2019-03-31T13:29:08.780Z,97067.48
2019-03-31T13:34:08.714Z,97069.61
2019-03-31T13:39:08.786Z,97054.27
2019-03-31T13:44:05.629Z,97051.17
2019-03-31T13:49:05.344Z,97046.13
2019-03-31T13:54:05.694Z,97046.83
2019-03-31T13:59:09.090Z,97039.00
2019-03-31T14:04:27.181Z,97038.59
2019-03-31T14:09:45.833Z,97024.59
2019-03-31T14:15:28.305Z,97017.44
2019-03-31T14:20:18.637Z,97016.64
2019-03-31T14:25:25.308Z,97007.85
2019-03-31T14:30:41.898Z,97007.78
2019-03-31T14:35:38.692Z,97002.66
2019-03-31T14:40:41.069Z,97001.46
2019-03-31T14:45:41.668Z,96992.14
2019-03-31T14:50:40.213Z,96997.66
2019-03-31T14:55:36.892Z,96992.66
2019-03-31T15:00:33.576Z,96992.81
2019-03-31T15:05:30.347Z,96987.66
2019-03-31T15:10:27.076Z,96990.34
2019-03-31T15:15:23.741Z,96986.86
2019-03-31T15:20:22.845Z,96984.89
2019-03-31T15:25:20.587Z,96980.90
2019-03-31T15:30:18.006Z,96981.70
2019-03-31T15:35:14.943Z,96979.12
2019-03-31T15:40:13.808Z,96984.36
2019-03-31T15:45:10.985Z,96985.30
2019-03-31T15:50:09.038Z,96981.41
2019-03-31T15:55:06.182Z,96978.95
2019-03-31T16:00:05.748Z,96980.86
2019-03-31T16:05:03.410Z,96979.86
2019-03-31T16:09:59.233Z,96979.30
2019-03-31T16:28:30.568Z,96966.08
2019-03-31T16:33:26.393Z,96971.12
2019-03-31T16:38:25.510Z,96962.13
2019-03-31T16:43:19.817Z,96968.32
2019-03-31T16:48:15.842Z,96967.73
2019-03-31T16:53:11.673Z,96971.40
2019-03-31T16:58:09.432Z,96973.38
2019-03-31T17:03:05.101Z,96971.61
2019-03-31T17:08:01.040Z,96966.48
2019-03-31T17:12:58.309Z,96971.06
2019-03-31T17:17:54.206Z,96972.09
2019-03-31T17:22:50.156Z,96970.84
2019-03-31T17:27:46.978Z,96974.48
2019-03-31T17:32:42.885Z,96972.84
2019-03-31T17:37:38.722Z,96978.38
2019-03-31T17:42:34.731Z,96982.95
2019-03-31T17:47:30.539Z,96981.66
2019-03-31T17:52:26.522Z,96983.84
2019-03-31T17:57:22.448Z,96994.83
2019-03-31T18:02:18.233Z,96996.84
2019-03-31T18:07:14.007Z,97001.39
2019-03-31T18:12:09.818Z,97001.94
2019-03-31T18:17:05.684Z,97007.27
2019-03-31T18:22:15.580Z,97009.26
2019-03-31T18:26:59.276Z,97017.25
2019-03-31T18:31:55.297Z,97024.35
2019-03-31T18:36:51.174Z,97028.66
2019-03-31T18:41:46.927Z,97030.34
2019-03-31T18:46:42.957Z,97032.79
2019-03-31T18:51:38.794Z,97041.88
2019-03-31T18:56:45.519Z,97046.20
2019-03-31T19:01:52.148Z,97049.94
2019-03-31T19:06:54.736Z,97060.70
2019-03-31T19:12:12.323Z,97057.69
2019-03-31T19:17:19.865Z,97066.50
2019-03-31T19:22:33.154Z,97074.36
2019-03-31T19:27:43.199Z,97075.72
2019-03-31T19:32:57.916Z,97075.14
2019-03-31T19:38:14.185Z,97079.83
2019-03-31T19:43:35.291Z,97083.13
2019-03-31T19:48:38.386Z,97083.95
2019-03-31T19:53:54.826Z,97082.91
2019-03-31T19:59:08.389Z,97083.26
2019-03-31T20:04:22.996Z,97092.75
2019-03-31T20:09:43.797Z,97095.02
2019-03-31T20:15:04.402Z,97089.67
2019-03-31T20:20:13.068Z,97098.98
2019-03-31T20:25:16.353Z,97102.39
2019-03-31T20:30:32.789Z,97099.76
2019-03-31T20:35:40.489Z,97112.61
2019-03-31T20:40:40.982Z,97114.41
2019-03-31T20:45:36.895Z,97118.27
2019-03-31T20:50:32.741Z,97119.41
2019-03-31T20:55:28.513Z,97114.73
2019-03-31T21:00:28.675Z,97113.95
2019-03-31T21:05:29.738Z,97114.06
2019-03-31T21:10:25.617Z,97120.42
2019-03-31T21:15:21.886Z,97115.08
2019-03-31T21:20:17.978Z,97118.48
2019-03-31T21:25:14.231Z,97126.80
2019-03-31T21:30:10.413Z,97127.59
2019-03-31T21:35:07.051Z,97135.52
2019-03-31T21:40:03.456Z,97136.88
2019-03-31T21:45:07.435Z,97133.18
2019-03-31T21:50:03.475Z,97131.63
2019-03-31T21:55:01.044Z,97130.41
2019-03-31T22:00:05.774Z,97129.48
2019-03-31T22:05:03.239Z,97129.48
2019-03-31T22:09:59.260Z,97140.14
2019-03-31T22:14:57.796Z,97139.27
2019-03-31T22:19:57.057Z,97134.59
2019-03-31T22:24:53.012Z,97136.30
2019-03-31T22:29:49.435Z,97133.95
2019-03-31T22:34:45.359Z,97126.77
2019-03-31T22:39:41.313Z,97129.42
2019-03-31T22:44:37.783Z,97121.70
2019-03-31T22:49:33.896Z,97124.78
2019-03-31T22:54:30.044Z,97114.14
2019-03-31T22:59:26.141Z,97115.71
2019-03-31T23:04:22.797Z,97119.65
2019-03-31T23:09:18.778Z,97118.73
2019-03-31T23:14:15.496Z,97114.97
2019-03-31T23:19:15.008Z,97116.16
2019-03-31T23:24:10.916Z,97122.69
2019-03-31T23:29:07.198Z,97114.19
2019-03-31T23:34:03.307Z,97107.65
2019-03-31T23:38:59.213Z,97106.50
2019-03-31T23:43:55.326Z,97110.97
2019-03-31T23:48:51.306Z,97109.82
2019-03-31T23:53:47.226Z,97111.13
2019-03-31T23:58:43.226Z,97105.28
